sensor_id;sensor_type;location;lat;lon;timestamp;pressure;altitude;pressure_sealevel;temperature;humidity
71476;BME280;59286;59.274;17.974;2023-04-08T00:01:03;102662.88;;;3.12;73.59
71476;BME280;59286;59.274;17.974;2023-04-08T00:03:28;102667.06;;;3.13;73.49
71476;BME280;59286;59.274;17.974;2023-04-08T00:05:54;102650.91;;;3.11;73.95
71476;BME280;59286;59.274;17.974;2023-04-08T00:08:20;102663.28;;;3.16;73.62
71476;BME280;59286;59.274;17.974;2023-04-08T00:10:45;102666.69;;;3.16;73.19
71476;BME280;59286;59.274;17.974;2023-04-08T00:13:10;102672.88;;;3.15;72.85
71476;BME280;59286;59.274;17.974;2023-04-08T00:15:36;102668.66;;;3.14;73.11
71476;BME280;59286;59.274;17.974;2023-04-08T00:18:01;102667.84;;;3.14;72.96
71476;BME280;59286;59.274;17.974;2023-04-08T00:20:27;102672.66;;;3.17;73.21
71476;BME280;59286;59.274;17.974;2023-04-08T00:22:52;102676.44;;;3.14;73.17
71476;BME280;59286;59.274;17.974;2023-04-08T00:25:18;102672.88;;;3.15;72.75
71476;BME280;59286;59.274;17.974;2023-04-08T00:27:43;102676.03;;;3.17;72.88
71476;BME280;59286;59.274;17.974;2023-04-08T00:30:09;102678.03;;;3.15;73.20
71476;BME280;59286;59.274;17.974;2023-04-08T00:32:34;102679.63;;;3.16;72.86
71476;BME280;59286;59.274;17.974;2023-04-08T00:35:00;102669.47;;;3.21;73.00
71476;BME280;59286;59.274;17.974;2023-04-08T00:37:26;102674.03;;;3.19;72.49
71476;BME280;59286;59.274;17.974;2023-04-08T00:39:52;102672.06;;;3.21;72.90
71476;BME280;59286;59.274;17.974;2023-04-08T00:42:18;102675.25;;;3.23;72.29
71476;BME280;59286;59.274;17.974;2023-04-08T00:44:43;102672.06;;;3.21;72.40
71476;BME280;59286;59.274;17.974;2023-04-08T00:47:13;102682.06;;;3.24;72.35
71476;BME280;59286;59.274;17.974;2023-04-08T00:49:38;102667.13;;;3.26;72.55
71476;BME280;59286;59.274;17.974;2023-04-08T00:52:04;102669.09;;;3.24;72.21
71476;BME280;59286;59.274;17.974;2023-04-08T00:54:30;102672.88;;;3.22;71.97
71476;BME280;59286;59.274;17.974;2023-04-08T00:56:55;102676.28;;;3.22;71.78
71476;BME280;59286;59.274;17.974;2023-04-08T00:59:21;102674.47;;;3.23;71.63
71476;BME280;59286;59.274;17.974;2023-04-08T01:01:55;102675.25;;;3.23;71.59
71476;BME280;59286;59.274;17.974;2023-04-08T01:07:10;102685.25;;;3.26;71.77
71476;BME280;59286;59.274;17.974;2023-04-08T01:09:38;102675.88;;;3.25;71.45
71476;BME280;59286;59.274;17.974;2023-04-08T01:12:09;102674.09;;;3.26;71.63
71476;BME280;59286;59.274;17.974;2023-04-08T01:14:41;102679.69;;;3.29;71.37
71476;BME280;59286;59.274;17.974;2023-04-08T01:17:09;102676.31;;;3.35;71.76
71476;BME280;59286;59.274;17.974;2023-04-08T01:19:38;102677.69;;;3.38;71.45
71476;BME280;59286;59.274;17.974;2023-04-08T01:22:12;102677.28;;;3.34;71.04
71476;BME280;59286;59.274;17.974;2023-04-08T01:24:42;102678.28;;;3.33;71.17
71476;BME280;59286;59.274;17.974;2023-04-08T01:27:09;102669.31;;;3.36;71.24
71476;BME280;59286;59.274;17.974;2023-04-08T01:29:36;102673.31;;;3.38;71.64
71476;BME280;59286;59.274;17.974;2023-04-08T01:32:02;102672.50;;;3.31;70.65
71476;BME280;59286;59.274;17.974;2023-04-08T01:34:29;102683.28;;;3.35;70.70
71476;BME280;59286;59.274;17.974;2023-04-08T01:36:56;102680.47;;;3.36;70.41
71476;BME280;59286;59.274;17.974;2023-04-08T01:39:22;102671.53;;;3.39;70.40
71476;BME280;59286;59.274;17.974;2023-04-08T01:41:49;102682.72;;;3.39;70.33
71476;BME280;59286;59.274;17.974;2023-04-08T01:44:17;102684.09;;;3.35;70.07
71476;BME280;59286;59.274;17.974;2023-04-08T01:46:44;102679.72;;;3.42;70.27
71476;BME280;59286;59.274;17.974;2023-04-08T01:49:10;102681.09;;;3.38;70.10
71476;BME280;59286;59.274;17.974;2023-04-08T01:51:37;102686.28;;;3.38;70.45
71476;BME280;59286;59.274;17.974;2023-04-08T01:54:04;102681.28;;;3.43;70.51
71476;BME280;59286;59.274;17.974;2023-04-08T01:56:30;102685.50;;;3.44;70.21
71476;BME280;59286;59.274;17.974;2023-04-08T01:58:58;102678.09;;;3.41;70.13
71476;BME280;59286;59.274;17.974;2023-04-08T02:01:26;102686.88;;;3.40;69.87
71476;BME280;59286;59.274;17.974;2023-04-08T02:03:54;102695.25;;;3.42;69.97
71476;BME280;59286;59.274;17.974;2023-04-08T02:06:22;102688.09;;;3.44;70.14
71476;BME280;59286;59.274;17.974;2023-04-08T02:08:47;102686.69;;;3.42;70.21
71476;BME280;59286;59.274;17.974;2023-04-08T02:11:12;102689.47;;;3.40;69.38
71476;BME280;59286;59.274;17.974;2023-04-08T02:13:38;102688.47;;;3.41;69.88
71476;BME280;59286;59.274;17.974;2023-04-08T02:16:09;102697.84;;;3.42;70.73
71476;BME280;59286;59.274;17.974;2023-04-08T02:18:42;102688.09;;;3.44;70.13
71476;BME280;59286;59.274;17.974;2023-04-08T02:21:14;102677.53;;;3.39;70.29
71476;BME280;59286;59.274;17.974;2023-04-08T02:23:41;102680.88;;;3.33;69.43
71476;BME280;59286;59.274;17.974;2023-04-08T02:26:13;102686.88;;;3.40;69.68
71476;BME280;59286;59.274;17.974;2023-04-08T02:28:40;102686.88;;;3.40;69.73
71476;BME280;59286;59.274;17.974;2023-04-08T02:31:09;102687.28;;;3.44;70.04
71476;BME280;59286;59.274;17.974;2023-04-08T02:33:39;102682.09;;;3.37;70.22
71476;BME280;59286;59.274;17.974;2023-04-08T02:36:05;102686.09;;;3.46;69.90
71476;BME280;59286;59.274;17.974;2023-04-08T02:38:31;102688.09;;;3.44;69.25
71476;BME280;59286;59.274;17.974;2023-04-08T02:40:57;102673.72;;;3.42;69.05
71476;BME280;59286;59.274;17.974;2023-04-08T02:43:23;102682.72;;;3.46;69.16
71476;BME280;59286;59.274;17.974;2023-04-08T02:45:57;102680.31;;;3.44;69.43
71476;BME280;59286;59.274;17.974;2023-04-08T02:48:24;102681.28;;;3.43;69.29
71476;BME280;59286;59.274;17.974;2023-04-08T02:50:49;102683.47;;;3.40;69.27
71476;BME280;59286;59.274;17.974;2023-04-08T02:53:15;102689.88;;;3.37;69.41
71476;BME280;59286;59.274;17.974;2023-04-08T02:55:40;102694.84;;;3.39;69.57
71476;BME280;59286;59.274;17.974;2023-04-08T02:58:05;102692.06;;;3.40;69.73
71476;BME280;59286;59.274;17.974;2023-04-08T03:00:31;102686.06;;;3.33;69.69
71476;BME280;59286;59.274;17.974;2023-04-08T03:02:56;102688.25;;;3.36;70.09
71476;BME280;59286;59.274;17.974;2023-04-08T03:05:21;102693.25;;;3.38;69.56
71476;BME280;59286;59.274;17.974;2023-04-08T03:07:47;102699.25;;;3.38;69.69
71476;BME280;59286;59.274;17.974;2023-04-08T03:10:12;102688.44;;;3.28;69.39
71476;BME280;59286;59.274;17.974;2023-04-08T03:12:38;102694.03;;;3.32;69.38
71476;BME280;59286;59.274;17.974;2023-04-08T03:15:03;102702.44;;;3.34;69.13
71476;BME280;59286;59.274;17.974;2023-04-08T03:17:29;102703.97;;;3.28;69.33
71476;BME280;59286;59.274;17.974;2023-04-08T03:19:58;102707.19;;;3.30;69.29
71476;BME280;59286;59.274;17.974;2023-04-08T03:22:23;102705.19;;;3.32;69.66
71476;BME280;59286;59.274;17.974;2023-04-08T03:24:48;102696.41;;;3.27;69.99
71476;BME280;59286;59.274;17.974;2023-04-08T03:27:14;102699.22;;;3.32;69.56
71476;BME280;59286;59.274;17.974;2023-04-08T03:29:39;102704.22;;;3.33;69.35
71476;BME280;59286;59.274;17.974;2023-04-08T03:32:05;102699.22;;;3.32;69.10
71476;BME280;59286;59.274;17.974;2023-04-08T03:34:33;102701.22;;;3.36;69.45
71476;BME280;59286;59.274;17.974;2023-04-08T03:36:58;102693.66;;;3.35;69.13
71476;BME280;59286;59.274;17.974;2023-04-08T03:39:23;102691.25;;;3.33;69.44
71476;BME280;59286;59.274;17.974;2023-04-08T03:41:48;102698.22;;;3.33;69.47
71476;BME280;59286;59.274;17.974;2023-04-08T03:44:14;102701.22;;;3.36;69.21
71476;BME280;59286;59.274;17.974;2023-04-08T03:46:39;102698.78;;;3.28;69.50
71476;BME280;59286;59.274;17.974;2023-04-08T03:49:05;102698.41;;;3.31;69.44
71476;BME280;59286;59.274;17.974;2023-04-08T03:51:31;102701.19;;;3.23;69.25
71476;BME280;59286;59.274;17.974;2023-04-08T03:53:56;102696.38;;;3.20;69.45
71476;BME280;59286;59.274;17.974;2023-04-08T03:56:21;102696.81;;;3.24;69.46
71476;BME280;59286;59.274;17.974;2023-04-08T03:58:47;102701.19;;;3.23;69.28
71476;BME280;59286;59.274;17.974;2023-04-08T04:01:12;102707.72;;;3.19;69.43
71476;BME280;59286;59.274;17.974;2023-04-08T04:03:37;102714.72;;;3.19;69.80
71476;BME280;59286;59.274;17.974;2023-04-08T04:06:03;102715.50;;;3.19;69.99
71476;BME280;59286;59.274;17.974;2023-04-08T04:08:29;102713.91;;;3.18;69.36
71476;BME280;59286;59.274;17.974;2023-04-08T04:10:54;102711.53;;;3.17;69.78
71476;BME280;59286;59.274;17.974;2023-04-08T04:13:19;102710.72;;;3.16;70.00
71476;BME280;59286;59.274;17.974;2023-04-08T04:15:46;102721.88;;;3.17;69.90
71476;BME280;59286;59.274;17.974;2023-04-08T04:18:11;102720.88;;;3.11;69.92
71476;BME280;59286;59.274;17.974;2023-04-08T04:20:40;102722.66;;;3.17;69.67
71476;BME280;59286;59.274;17.974;2023-04-08T04:23:06;102718.28;;;3.11;69.72
71476;BME280;59286;59.274;17.974;2023-04-08T04:25:31;102721.88;;;3.17;70.03
71476;BME280;59286;59.274;17.974;2023-04-08T04:27:57;102726.81;;;3.12;69.78
71476;BME280;59286;59.274;17.974;2023-04-08T04:30:22;102728.81;;;3.10;70.22
71476;BME280;59286;59.274;17.974;2023-04-08T04:32:48;102724.63;;;3.09;69.62
71476;BME280;59286;59.274;17.974;2023-04-08T04:35:13;102729.22;;;3.07;69.85
71476;BME280;59286;59.274;17.974;2023-04-08T04:37:38;102731.38;;;3.03;70.08
71476;BME280;59286;59.274;17.974;2023-04-08T04:40:05;102732.00;;;3.05;69.93
71476;BME280;59286;59.274;17.974;2023-04-08T04:42:30;102725.41;;;3.03;69.83
71476;BME280;59286;59.274;17.974;2023-04-08T04:44:56;102726.63;;;3.07;69.82
71476;BME280;59286;59.274;17.974;2023-04-08T04:47:21;102733.22;;;3.09;69.51
71476;BME280;59286;59.274;17.974;2023-04-08T04:49:47;102736.00;;;3.08;69.27
71476;BME280;59286;59.274;17.974;2023-04-08T04:52:12;102728.63;;;3.11;69.48
71476;BME280;59286;59.274;17.974;2023-04-08T04:54:38;102732.22;;;3.10;68.93
71476;BME280;59286;59.274;17.974;2023-04-08T04:57:03;102728.81;;;3.10;69.61
71476;BME280;59286;59.274;17.974;2023-04-08T04:59:28;102727.63;;;3.12;69.08
71476;BME280;59286;59.274;17.974;2023-04-08T05:01:54;102734.03;;;3.16;69.36
71476;BME280;59286;59.274;17.974;2023-04-08T05:04:24;102733.03;;;3.17;69.23
71476;BME280;59286;59.274;17.974;2023-04-08T05:06:50;102729.88;;;3.22;68.82
71476;BME280;59286;59.274;17.974;2023-04-08T05:09:15;102734.25;;;3.21;68.92
71476;BME280;59286;59.274;17.974;2023-04-08T05:11:41;102735.88;;;3.22;68.76
71476;BME280;59286;59.274;17.974;2023-04-08T05:14:06;102745.03;;;3.25;69.00
71476;BME280;59286;59.274;17.974;2023-04-08T05:16:32;102743.03;;;3.20;68.72
71476;BME280;59286;59.274;17.974;2023-04-08T05:18:58;102737.88;;;3.27;69.15
71476;BME280;59286;59.274;17.974;2023-04-08T05:21:23;102736.06;;;3.21;68.32
71476;BME280;59286;59.274;17.974;2023-04-08T05:23:48;102745.97;;;3.17;68.63
71476;BME280;59286;59.274;17.974;2023-04-08T05:26:18;102743.59;;;3.16;68.52
71476;BME280;59286;59.274;17.974;2023-04-08T05:28:43;102742.56;;;3.10;68.86
71476;BME280;59286;59.274;17.974;2023-04-08T05:31:08;102746.56;;;3.13;68.96
71476;BME280;59286;59.274;17.974;2023-04-08T05:33:34;102751.78;;;3.19;68.85
71476;BME280;59286;59.274;17.974;2023-04-08T05:35:59;102752.19;;;3.23;68.67
71476;BME280;59286;59.274;17.974;2023-04-08T05:38:24;102746.84;;;3.24;68.60
71476;BME280;59286;59.274;17.974;2023-04-08T05:40:50;102756.19;;;3.25;68.51
71476;BME280;59286;59.274;17.974;2023-04-08T05:43:15;102755.22;;;3.26;68.78
71476;BME280;59286;59.274;17.974;2023-04-08T05:45:41;102763.56;;;3.28;68.97
71476;BME280;59286;59.274;17.974;2023-04-08T05:48:06;102763.00;;;3.26;68.83
71476;BME280;59286;59.274;17.974;2023-04-08T05:50:34;102750.19;;;3.18;68.35
71476;BME280;59286;59.274;17.974;2023-04-08T05:52:59;102762.34;;;3.18;68.65
71476;BME280;59286;59.274;17.974;2023-04-08T05:55:25;102753.75;;;3.17;68.74
71476;BME280;59286;59.274;17.974;2023-04-08T05:57:50;102759.38;;;3.21;68.26
71476;BME280;59286;59.274;17.974;2023-04-08T06:00:15;102764.63;;;3.34;68.67
71476;BME280;59286;59.274;17.974;2023-04-08T06:02:41;102765.41;;;3.34;67.74
71476;BME280;59286;59.274;17.974;2023-04-08T06:05:06;102771.03;;;3.44;68.17
71476;BME280;59286;59.274;17.974;2023-04-08T06:07:33;102763.47;;;3.43;68.10
71476;BME280;59286;59.274;17.974;2023-04-08T06:09:58;102763.91;;;3.59;67.44
71476;BME280;59286;59.274;17.974;2023-04-08T06:12:24;102772.72;;;3.71;67.31
71476;BME280;59286;59.274;17.974;2023-04-08T06:14:55;102771.53;;;3.74;67.37
71476;BME280;59286;59.274;17.974;2023-04-08T06:17:21;102765.94;;;3.77;66.45
71476;BME280;59286;59.274;17.974;2023-04-08T06:19:46;102775.38;;;3.97;66.92
71476;BME280;59286;59.274;17.974;2023-04-08T06:22:11;102772.81;;;4.11;65.89
71476;BME280;59286;59.274;17.974;2023-04-08T06:24:36;102770.03;;;4.32;65.91
71476;BME280;59286;59.274;17.974;2023-04-08T06:27:02;102772.63;;;4.32;64.68
71476;BME280;59286;59.274;17.974;2023-04-08T06:29:27;102777.25;;;4.49;64.27
71476;BME280;59286;59.274;17.974;2023-04-08T06:31:54;102774.22;;;4.46;65.32
71476;BME280;59286;59.274;17.974;2023-04-08T06:34:20;102774.03;;;4.67;63.67
71476;BME280;59286;59.274;17.974;2023-04-08T06:36:45;102776.59;;;5.00;62.72
71476;BME280;59286;59.274;17.974;2023-04-08T06:39:10;102781.75;;;5.06;62.29
71476;BME280;59286;59.274;17.974;2023-04-08T06:41:36;102785.34;;;5.12;62.64
71476;BME280;59286;59.274;17.974;2023-04-08T06:44:01;102799.53;;;5.09;62.00
71476;BME280;59286;59.274;17.974;2023-04-08T06:46:26;102786.75;;;5.14;61.67
71476;BME280;59286;59.274;17.974;2023-04-08T06:48:52;102794.28;;;5.29;61.56
71476;BME280;59286;59.274;17.974;2023-04-08T06:51:17;102791.44;;;5.43;61.50
71476;BME280;59286;59.274;17.974;2023-04-08T06:53:42;102787.38;;;5.60;60.73
71476;BME280;59286;59.274;17.974;2023-04-08T06:56:08;102790.50;;;5.75;59.80
71476;BME280;59286;59.274;17.974;2023-04-08T06:58:33;102790.25;;;5.90;59.76
71476;BME280;59286;59.274;17.974;2023-04-08T07:00:59;102787.34;;;6.05;59.13
71476;BME280;59286;59.274;17.974;2023-04-08T07:03:25;102785.09;;;6.15;58.94
71476;BME280;59286;59.274;17.974;2023-04-08T07:05:51;102794.31;;;6.17;58.58
71476;BME280;59286;59.274;17.974;2023-04-08T07:08:16;102783.88;;;6.17;58.99
71476;BME280;59286;59.274;17.974;2023-04-08T07:10:42;102792.94;;;6.39;58.96
71476;BME280;59286;59.274;17.974;2023-04-08T07:13:07;102788.59;;;6.27;57.13
71476;BME280;59286;59.274;17.974;2023-04-08T07:15:32;102796.25;;;6.22;59.11
71476;BME280;59286;59.274;17.974;2023-04-08T07:17:58;102791.94;;;6.09;58.29
71476;BME280;59286;59.274;17.974;2023-04-08T07:20:24;102801.09;;;6.18;57.84
71476;BME280;59286;59.274;17.974;2023-04-08T07:22:50;102809.34;;;6.40;57.47
71476;BME280;59286;59.274;17.974;2023-04-08T07:25:15;102797.81;;;6.54;56.36
71476;BME280;59286;59.274;17.974;2023-04-08T07:27:41;102801.59;;;6.58;57.37
71476;BME280;59286;59.274;17.974;2023-04-08T07:30:07;102797.16;;;6.58;56.04
71476;BME280;59286;59.274;17.974;2023-04-08T07:32:33;102811.91;;;6.71;55.19
71476;BME280;59286;59.274;17.974;2023-04-08T07:34:59;102812.09;;;6.94;55.11
71476;BME280;59286;59.274;17.974;2023-04-08T07:37:25;102801.59;;;7.01;56.02
71476;BME280;59286;59.274;17.974;2023-04-08T07:39:50;102804.78;;;7.21;55.84
71476;BME280;59286;59.274;17.974;2023-04-08T07:42:16;102813.41;;;7.21;54.44
71476;BME280;59286;59.274;17.974;2023-04-08T07:44:42;102802.69;;;7.29;54.74
71476;BME280;59286;59.274;17.974;2023-04-08T07:47:08;102820.78;;;7.42;54.19
71476;BME280;59286;59.274;17.974;2023-04-08T07:49:33;102808.63;;;7.54;53.73
71476;BME280;59286;59.274;17.974;2023-04-08T07:51:59;102814.03;;;7.71;54.02
71476;BME280;59286;59.274;17.974;2023-04-08T07:54:24;102810.59;;;7.89;53.07
71476;BME280;59286;59.274;17.974;2023-04-08T07:56:50;102811.25;;;7.84;51.98
71476;BME280;59286;59.274;17.974;2023-04-08T07:59:15;102806.19;;;7.71;52.69
71476;BME280;59286;59.274;17.974;2023-04-08T08:01:40;102814.66;;;7.55;52.50
71476;BME280;59286;59.274;17.974;2023-04-08T08:04:06;102816.44;;;7.54;52.80
71476;BME280;59286;59.274;17.974;2023-04-08T08:06:31;102814.31;;;7.63;53.24
71476;BME280;59286;59.274;17.974;2023-04-08T08:08:57;102823.41;;;7.90;52.12
71476;BME280;59286;59.274;17.974;2023-04-08T08:11:22;102816.94;;;7.93;51.40
71476;BME280;59286;59.274;17.974;2023-04-08T08:13:48;102829.44;;;7.91;51.25
71476;BME280;59286;59.274;17.974;2023-04-08T08:16:13;102820.47;;;7.68;51.47
71476;BME280;59286;59.274;17.974;2023-04-08T08:18:39;102814.53;;;7.61;51.98
71476;BME280;59286;59.274;17.974;2023-04-08T08:21:05;102824.59;;;7.76;52.18
71476;BME280;59286;59.274;17.974;2023-04-08T08:23:31;102827.03;;;7.89;50.61
71476;BME280;59286;59.274;17.974;2023-04-08T08:26:04;102816.34;;;8.09;50.69
71476;BME280;59286;59.274;17.974;2023-04-08T08:28:31;102820.66;;;8.15;49.92
71476;BME280;59286;59.274;17.974;2023-04-08T08:30:56;102822.38;;;8.09;50.82
71476;BME280;59286;59.274;17.974;2023-04-08T08:33:22;102819.25;;;8.01;49.69
71476;BME280;59286;59.274;17.974;2023-04-08T08:35:47;102820.88;;;7.83;52.21
71476;BME280;59286;59.274;17.974;2023-04-08T08:38:12;102823.84;;;7.87;51.11
71476;BME280;59286;59.274;17.974;2023-04-08T08:40:38;102826.19;;;8.07;51.86
71476;BME280;59286;59.274;17.974;2023-04-08T08:43:03;102825.16;;;8.26;50.20
71476;BME280;59286;59.274;17.974;2023-04-08T08:45:29;102817.84;;;8.16;49.27
71476;BME280;59286;59.274;17.974;2023-04-08T08:47:55;102825.91;;;8.15;49.14
71476;BME280;59286;59.274;17.974;2023-04-08T08:50:20;102821.44;;;8.15;49.18
71476;BME280;59286;59.274;17.974;2023-04-08T08:52:50;102816.56;;;8.19;49.38
71476;BME280;59286;59.274;17.974;2023-04-08T08:55:19;102823.72;;;8.12;49.64
71476;BME280;59286;59.274;17.974;2023-04-08T08:57:45;102818.63;;;8.17;49.76
71476;BME280;59286;59.274;17.974;2023-04-08T09:00:11;102820.06;;;8.31;49.16
71476;BME280;59286;59.274;17.974;2023-04-08T09:02:37;102822.56;;;8.49;48.87
71476;BME280;59286;59.274;17.974;2023-04-08T09:05:03;102822.56;;;8.49;47.61
71476;BME280;59286;59.274;17.974;2023-04-08T09:07:31;102812.47;;;8.41;47.90
71476;BME280;59286;59.274;17.974;2023-04-08T09:09:59;102818.69;;;8.40;47.82
71476;BME280;59286;59.274;17.974;2023-04-08T09:12:25;102816.34;;;8.50;48.32
71476;BME280;59286;59.274;17.974;2023-04-08T09:15:05;102810.19;;;8.56;49.04
71476;BME280;59286;59.274;17.974;2023-04-08T09:17:40;102817.13;;;8.62;50.42
71476;BME280;59286;59.274;17.974;2023-04-08T09:20:10;102813.88;;;8.78;48.31
71476;BME280;59286;59.274;17.974;2023-04-08T09:22:59;102809.53;;;8.72;47.33
71476;BME280;59286;59.274;17.974;2023-04-08T09:25:27;102805.31;;;8.71;47.43
71476;BME280;59286;59.274;17.974;2023-04-08T09:27:52;102804.06;;;8.85;47.35
71476;BME280;59286;59.274;17.974;2023-04-08T09:30:19;102802.13;;;8.80;46.35
71476;BME280;59286;59.274;17.974;2023-04-08T09:32:52;102803.28;;;8.61;45.97
71476;BME280;59286;59.274;17.974;2023-04-08T09:35:19;102798.97;;;8.67;46.18
71476;BME280;59286;59.274;17.974;2023-04-08T09:37:44;102807.16;;;8.70;45.89
71476;BME280;59286;59.274;17.974;2023-04-08T09:40:11;102798.84;;;8.73;45.66
71476;BME280;59286;59.274;17.974;2023-04-08T09:42:39;102809.88;;;8.75;46.34
71476;BME280;59286;59.274;17.974;2023-04-08T09:45:06;102799.66;;;8.74;46.53
71476;BME280;59286;59.274;17.974;2023-04-08T09:47:41;102796.66;;;8.82;45.74
71476;BME280;59286;59.274;17.974;2023-04-08T09:50:08;102802.59;;;9.01;46.35
71476;BME280;59286;59.274;17.974;2023-04-08T09:52:43;102806.66;;;9.08;44.65
71476;BME280;59286;59.274;17.974;2023-04-08T09:55:11;102797.00;;;9.09;46.37
71476;BME280;59286;59.274;17.974;2023-04-08T09:57:43;102802.47;;;8.96;44.70
71476;BME280;59286;59.274;17.974;2023-04-08T10:00:13;102803.28;;;8.96;45.38
71476;BME280;59286;59.274;17.974;2023-04-08T10:05:24;102803.94;;;9.03;44.46
71476;BME280;59286;59.274;17.974;2023-04-08T10:07:50;102803.94;;;9.03;44.35
71476;BME280;59286;59.274;17.974;2023-04-08T10:10:15;102800.41;;;8.86;45.26
71476;BME280;59286;59.274;17.974;2023-04-08T10:12:41;102800.09;;;8.94;45.11
71476;BME280;59286;59.274;17.974;2023-04-08T10:17:50;102795.41;;;9.08;46.46
71476;BME280;59286;59.274;17.974;2023-04-08T10:20:40;102801.16;;;9.21;44.02
71476;BME280;59286;59.274;17.974;2023-04-08T10:23:13;102799.38;;;9.10;43.93
71476;BME280;59286;59.274;17.974;2023-04-08T10:25:44;102797.78;;;9.09;43.82
71476;BME280;59286;59.274;17.974;2023-04-08T10:33:00;102791.97;;;9.19;43.21
71476;BME280;59286;59.274;17.974;2023-04-08T10:36:15;102788.06;;;9.33;44.73
71476;BME280;59286;59.274;17.974;2023-04-08T10:38:15;102788.41;;;9.36;43.40
71476;BME280;59286;59.274;17.974;2023-04-08T10:40:43;102798.13;;;9.24;43.02
71476;BME280;59286;59.274;17.974;2023-04-08T10:43:09;102791.75;;;9.09;41.71
71476;BME280;59286;59.274;17.974;2023-04-08T10:45:36;102793.22;;;9.16;42.33
71476;BME280;59286;59.274;17.974;2023-04-08T10:50:36;102793.22;;;9.16;42.05
71476;BME280;59286;59.274;17.974;2023-04-08T10:53:01;102786.75;;;9.19;42.15
71476;BME280;59286;59.274;17.974;2023-04-08T10:55:27;102784.25;;;9.12;42.02
71476;BME280;59286;59.274;17.974;2023-04-08T10:57:53;102778.19;;;9.23;42.96
71476;BME280;59286;59.274;17.974;2023-04-08T11:00:33;102778.97;;;9.35;40.97
71476;BME280;59286;59.274;17.974;2023-04-08T11:03:02;102784.69;;;9.32;41.81
71476;BME280;59286;59.274;17.974;2023-04-08T11:05:28;102786.81;;;9.35;41.24
71476;BME280;59286;59.274;17.974;2023-04-08T11:07:53;102782.84;;;9.33;42.69
71476;BME280;59286;59.274;17.974;2023-04-08T11:10:19;102775.44;;;9.41;41.81
71476;BME280;59286;59.274;17.974;2023-04-08T11:12:44;102771.03;;;9.30;41.53
71476;BME280;59286;59.274;17.974;2023-04-08T11:15:10;102781.25;;;9.32;41.67
71476;BME280;59286;59.274;17.974;2023-04-08T11:17:37;102776.34;;;9.35;42.58
71476;BME280;59286;59.274;17.974;2023-04-08T11:20:03;102785.09;;;9.41;41.09
71476;BME280;59286;59.274;17.974;2023-04-08T11:22:30;102769.88;;;9.38;40.38
71476;BME280;59286;59.274;17.974;2023-04-08T11:24:58;102775.50;;;9.46;42.10
71476;BME280;59286;59.274;17.974;2023-04-08T11:27:24;102765.13;;;9.51;41.00
71476;BME280;59286;59.274;17.974;2023-04-08T11:29:54;102775.59;;;9.51;40.31
71476;BME280;59286;59.274;17.974;2023-04-08T11:32:21;102778.69;;;9.48;40.69
71476;BME280;59286;59.274;17.974;2023-04-08T11:34:50;102780.16;;;9.56;41.94
71476;BME280;59286;59.274;17.974;2023-04-08T11:37:17;102777.78;;;9.54;41.83
71476;BME280;59286;59.274;17.974;2023-04-08T11:39:42;102776.09;;;9.48;39.53
71476;BME280;59286;59.274;17.974;2023-04-08T11:42:08;102779.72;;;9.47;41.11
71476;BME280;59286;59.274;17.974;2023-04-08T11:44:33;102778.72;;;9.37;40.11
71476;BME280;59286;59.274;17.974;2023-04-08T11:46:59;102777.56;;;9.44;40.96
71476;BME280;59286;59.274;17.974;2023-04-08T11:49:26;102777.81;;;9.43;40.41
71476;BME280;59286;59.274;17.974;2023-04-08T11:51:59;102777.66;;;9.49;40.59
71476;BME280;59286;59.274;17.974;2023-04-08T11:54:28;102771.06;;;9.58;40.31
71476;BME280;59286;59.274;17.974;2023-04-08T11:56:53;102772.28;;;9.56;38.58
71476;BME280;59286;59.274;17.974;2023-04-08T11:59:20;102758.78;;;9.47;41.23
71476;BME280;59286;59.274;17.974;2023-04-08T12:01:45;102765.25;;;9.56;39.25
71476;BME280;59286;59.274;17.974;2023-04-08T12:04:10;102763.72;;;9.60;39.41
71476;BME280;59286;59.274;17.974;2023-04-08T12:06:36;102763.69;;;9.72;39.11
71476;BME280;59286;59.274;17.974;2023-04-08T12:09:01;102761.31;;;9.70;39.58
71476;BME280;59286;59.274;17.974;2023-04-08T12:11:27;102747.72;;;9.73;39.62
71476;BME280;59286;59.274;17.974;2023-04-08T12:13:52;102748.41;;;9.81;41.12
71476;BME280;59286;59.274;17.974;2023-04-08T12:16:18;102754.88;;;9.78;39.44
71476;BME280;59286;59.274;17.974;2023-04-08T12:18:44;102756.88;;;9.71;39.02
71476;BME280;59286;59.274;17.974;2023-04-08T12:21:10;102749.25;;;9.69;38.98
71476;BME280;59286;59.274;17.974;2023-04-08T12:23:36;102739.78;;;9.68;37.47
71476;BME280;59286;59.274;17.974;2023-04-08T12:26:02;102736.47;;;9.73;38.38
71476;BME280;59286;59.274;17.974;2023-04-08T12:28:28;102741.56;;;9.79;37.62
71476;BME280;59286;59.274;17.974;2023-04-08T12:30:53;102736.31;;;9.79;37.48
71476;BME280;59286;59.274;17.974;2023-04-08T12:33:19;102742.91;;;9.82;36.48
71476;BME280;59286;59.274;17.974;2023-04-08T12:35:44;102737.44;;;9.84;38.13
71476;BME280;59286;59.274;17.974;2023-04-08T12:38:09;102725.38;;;9.83;38.17
71476;BME280;59286;59.274;17.974;2023-04-08T12:40:35;102732.19;;;9.84;37.36
71476;BME280;59286;59.274;17.974;2023-04-08T12:43:00;102723.78;;;9.82;38.69
71476;BME280;59286;59.274;17.974;2023-04-08T12:45:25;102729.03;;;9.82;37.23
71476;BME280;59286;59.274;17.974;2023-04-08T12:47:51;102722.03;;;9.70;39.00
71476;BME280;59286;59.274;17.974;2023-04-08T12:50:16;102726.00;;;9.73;38.17
71476;BME280;59286;59.274;17.974;2023-04-08T12:52:41;102714.50;;;9.74;37.40
71476;BME280;59286;59.274;17.974;2023-04-08T12:55:07;102716.31;;;9.73;37.27
71476;BME280;59286;59.274;17.974;2023-04-08T12:57:32;102726.31;;;9.76;37.58
71476;BME280;59286;59.274;17.974;2023-04-08T12:59:58;102724.34;;;9.84;36.96
71476;BME280;59286;59.274;17.974;2023-04-08T13:02:23;102719.66;;;9.86;36.60